Time;durP1;ratioP1;P1;durP2;ratioP2;P2;SDS_P1;SDS_P2;PMS_P1;PMS_P2;Temp;Humidity;BMP_temperature;BMP_pressure;BME280_temperature;BME280_humidity;BME280_pressure;Samples;Min_cycle;Max_cycle;Signal;HPM_P1;HPM_P2
2020/12/03 15:50:56;;;;;;;239.15;59.40;;;-0.20;97.20;;;;;;5026717;28;1075310;-96
2020/12/03 15:53:26;;;;;;;256.08;66.22;;;-0.20;97.80;;;;;;5037741;28;20434;-95
2020/12/03 15:55:58;;;;;;;290.42;70.75;;;-0.10;98.00;;;;;;5041964;28;20057;-96
2020/12/03 15:58:30;;;;;;;315.75;77.05;;;0.00;98.10;;;;;;5043773;28;20022;-96
2020/12/03 16:01:16;;;;;;;;;;;;;;;;;;;;;
2020/12/03 16:11:04;;;;;;;331.40;76.65;;;0.50;97.70;;;;;;5031424;28;20090;-96
2020/12/03 16:13:30;;;;;;;211.40;47.38;;;0.60;97.40;;;;;;5188616;23;20061;-96
2020/12/03 16:15:55;;;;;;;242.02;62.60;;;0.60;96.70;;;;;;5014015;28;20391;-95
2020/12/03 16:18:21;;;;;;;216.35;59.40;;;0.60;96.60;;;;;;4997070;28;20019;-96
2020/12/03 16:20:47;;;;;;;201.55;53.15;;;0.70;96.50;;;;;;4991582;28;20548;-94
2020/12/03 16:23:12;;;;;;;222.77;59.50;;;0.70;96.40;;;;;;5003345;28;20033;-95
2020/12/03 16:25:38;;;;;;;218.07;59.88;;;0.70;96.40;;;;;;5011436;28;20471;-94
2020/12/03 16:28:04;;;;;;;197.10;47.35;;;0.80;96.40;;;;;;5010628;28;20019;-94
2020/12/03 16:30:29;;;;;;;219.35;59.47;;;0.80;96.10;;;;;;5010770;28;20049;-96
2020/12/03 16:32:55;;;;;;;174.40;50.22;;;0.80;96.00;;;;;;5005579;28;20049;-95
2020/12/03 16:35:21;;;;;;;182.85;51.05;;;0.80;96.00;;;;;;4995103;28;20027;-94
2020/12/03 16:37:50;;;;;;;194.07;51.92;;;0.80;95.70;;;;;;4995802;28;20426;-95
2020/12/03 16:40:36;;;;;;;194.52;54.88;;;0.80;95.70;;;;;;4999558;28;20030;-95
2020/12/03 16:43:02;;;;;;;192.00;57.20;;;0.80;95.70;;;;;;5017166;28;20038;-96
2020/12/03 16:45:28;;;;;;;213.38;58.55;;;0.80;95.70;;;;;;5022608;28;20042;-96
2020/12/03 16:47:53;;;;;;;202.75;57.22;;;0.80;95.80;;;;;;5016915;28;20120;-95
2020/12/03 16:50:19;;;;;;;191.10;58.05;;;0.80;95.80;;;;;;4995648;28;20141;-95
2020/12/03 16:52:48;;;;;;;215.20;63.35;;;0.90;95.90;;;;;;4980377;28;20034;-96
2020/12/03 16:55:14;;;;;;;211.60;63.80;;;1.00;95.90;;;;;;4997168;28;20030;-96
2020/12/03 16:57:40;;;;;;;204.65;61.55;;;0.90;95.80;;;;;;4996743;28;20098;-94
2020/12/03 17:00:05;;;;;;;219.02;69.55;;;1.00;96.00;;;;;;4993659;28;20130;-95
2020/12/03 17:02:31;;;;;;;236.52;72.35;;;1.00;96.00;;;;;;4999885;28;20372;-95
2020/12/03 17:04:57;;;;;;;222.63;68.50;;;1.00;96.00;;;;;;5002348;28;20022;-95
2020/12/03 17:07:23;;;;;;;242.93;75.63;;;1.10;95.90;;;;;;4984601;28;20054;-95
2020/12/03 17:09:51;;;;;;;244.10;78.28;;;1.10;95.80;;;;;;4984949;28;20597;-95
2020/12/03 17:12:16;;;;;;;206.43;68.45;;;1.10;95.60;;;;;;4976101;28;20026;-95
2020/12/03 17:14:51;;;;;;;222.40;73.65;;;1.10;95.70;;;;;;4999965;28;20053;-96
2020/12/03 17:17:17;;;;;;;254.60;81.28;;;1.10;95.80;;;;;;4991522;28;20085;-94
2020/12/03 17:19:53;;;;;;;236.02;78.32;;;1.20;95.60;;;;;;4997312;28;20080;-95
2020/12/03 17:22:21;;;;;;;247.48;77.05;;;1.20;95.70;;;;;;4981820;28;20034;-95
2020/12/03 17:24:49;;;;;;;234.82;75.68;;;1.20;95.60;;;;;;4979947;28;20039;-94
2020/12/03 17:27:16;;;;;;;219.43;74.40;;;1.20;95.60;;;;;;4994204;28;20038;-95
2020/12/03 18:25:28;;;;;;;;;;;;;;;;;;;;;
2020/12/03 18:28:02;;;;;;;213.75;57.72;;;0.20;97.70;;;;;;5072498;28;20115;-95
2020/12/03 18:30:30;;;;;;;194.65;55.95;;;0.30;98.00;;;;;;5072835;28;20066;-95
2020/12/03 18:32:57;;;;;;;238.75;66.05;;;0.40;98.10;;;;;;5080170;28;20119;-96
2020/12/03 18:35:27;;;;;;;202.77;55.58;;;0.50;98.10;;;;;;5085665;28;20028;-95
2020/12/03 18:37:53;;;;;;;215.18;59.20;;;0.60;98.00;;;;;;5080865;28;20016;-96
2020/12/03 18:40:20;;;;;;;204.98;55.15;;;0.80;97.90;;;;;;5072970;28;20025;-94
2020/12/03 18:42:47;;;;;;;208.63;52.80;;;0.90;97.70;;;;;;5070782;28;20025;-95
2020/12/03 18:45:14;;;;;;;191.48;53.45;;;0.90;97.50;;;;;;5069772;28;20032;-95
2020/12/03 18:47:43;;;;;;;186.05;48.78;;;1.00;97.30;;;;;;5079040;28;20059;-95
2020/12/03 18:50:09;;;;;;;197.25;52.22;;;1.10;96.80;;;;;;5085017;28;20063;-96
2020/12/03 18:52:35;;;;;;;183.73;53.53;;;1.10;96.20;;;;;;5063553;28;20091;-96
2020/12/03 18:55:05;;;;;;;196.63;53.22;;;1.10;96.10;;;;;;5083028;28;20044;-96
2020/12/03 18:57:31;;;;;;;190.27;55.90;;;1.10;96.00;;;;;;5086765;28;20025;-95
2020/12/03 19:00:01;;;;;;;210.63;60.55;;;1.10;96.00;;;;;;5075059;28;20031;-96
2020/12/03 19:03:02;;;;;;;218.23;59.80;;;1.10;96.10;;;;;;5084799;28;20059;-96
2020/12/03 19:05:35;;;;;;;206.60;58.03;;;1.10;96.20;;;;;;5076843;28;20088;-95
2020/12/03 19:08:13;;;;;;;189.95;58.72;;;1.10;96.10;;;;;;5079011;28;20044;-96
2020/12/03 19:10:43;;;;;;;186.75;57.08;;;1.10;96.20;;;;;;5087917;28;20013;-96
2020/12/03 19:23:12;;;;;;;161.43;53.88;;;1.20;95.70;;;;;;4947088;29;20071;-96
2020/12/03 19:28:21;;;;;;;159.40;51.67;;;1.30;95.80;;;;;;5249191;23;20062;-96
2020/12/03 19:31:32;;;;;;;;;;;;;;;;;;;;;
